sensor_id;sensor_type;location;lat;lon;timestamp;temperature;humidity
7004;DHT22;3542;48.812;9.146;2022-07-29T00:00:36;20.00;99.90
7004;DHT22;3542;48.812;9.146;2022-07-29T00:03:02;20.00;99.90
7004;DHT22;3542;48.812;9.146;2022-07-29T00:05:27;19.90;99.90
7004;DHT22;3542;48.812;9.146;2022-07-29T00:07:54;20.00;99.90
7004;DHT22;3542;48.812;9.146;2022-07-29T00:10:20;19.90;99.90
7004;DHT22;3542;48.812;9.146;2022-07-29T00:12:45;19.90;99.90
7004;DHT22;3542;48.812;9.146;2022-07-29T00:15:11;19.90;99.90
7004;DHT22;3542;48.812;9.146;2022-07-29T00:17:37;19.90;99.90
7004;DHT22;3542;48.812;9.146;2022-07-29T00:20:03;19.90;99.90
7004;DHT22;3542;48.812;9.146;2022-07-29T00:22:29;19.90;99.90
7004;DHT22;3542;48.812;9.146;2022-07-29T00:24:54;19.80;99.90
7004;DHT22;3542;48.812;9.146;2022-07-29T00:27:20;19.80;99.90
7004;DHT22;3542;48.812;9.146;2022-07-29T00:29:45;19.70;99.90
7004;DHT22;3542;48.812;9.146;2022-07-29T00:32:11;19.70;99.90
7004;DHT22;3542;48.812;9.146;2022-07-29T00:34:36;19.70;99.90
7004;DHT22;3542;48.812;9.146;2022-07-29T00:37:21;19.70;99.90
7004;DHT22;3542;48.812;9.146;2022-07-29T00:39:46;19.60;99.90
7004;DHT22;3542;48.812;9.146;2022-07-29T00:42:12;19.60;99.90
7004;DHT22;3542;48.812;9.146;2022-07-29T00:44:38;19.60;99.90
7004;DHT22;3542;48.812;9.146;2022-07-29T00:47:04;19.50;99.90
7004;DHT22;3542;48.812;9.146;2022-07-29T00:49:29;19.50;99.90
7004;DHT22;3542;48.812;9.146;2022-07-29T00:51:55;19.50;99.90
7004;DHT22;3542;48.812;9.146;2022-07-29T00:54:20;19.50;99.90
7004;DHT22;3542;48.812;9.146;2022-07-29T00:56:46;19.50;99.90
7004;DHT22;3542;48.812;9.146;2022-07-29T00:59:12;19.50;99.90
7004;DHT22;3542;48.812;9.146;2022-07-29T02:32:16;18.80;99.90
7004;DHT22;3542;48.812;9.146;2022-07-29T02:34:43;18.80;99.90
7004;DHT22;3542;48.812;9.146;2022-07-29T02:37:11;18.80;99.90
7004;DHT22;3542;48.812;9.146;2022-07-29T02:39:37;18.80;99.90
7004;DHT22;3542;48.812;9.146;2022-07-29T02:42:08;18.80;99.90
7004;DHT22;3542;48.812;9.146;2022-07-29T02:44:35;18.80;99.90
7004;DHT22;3542;48.812;9.146;2022-07-29T02:49:40;18.70;99.90
7004;DHT22;3542;48.812;9.146;2022-07-29T02:52:16;18.70;99.90
7004;DHT22;3542;48.812;9.146;2022-07-29T02:55:01;18.60;99.90
7004;DHT22;3542;48.812;9.146;2022-07-29T02:57:35;18.60;99.90
7004;DHT22;3542;48.812;9.146;2022-07-29T03:00:05;18.60;99.90
7004;DHT22;3542;48.812;9.146;2022-07-29T03:02:35;18.60;99.90
7004;DHT22;3542;48.812;9.146;2022-07-29T03:05:03;18.70;99.90
7004;DHT22;3542;48.812;9.146;2022-07-29T03:07:29;18.70;99.90
7004;DHT22;3542;48.812;9.146;2022-07-29T03:09:55;18.70;99.90
7004;DHT22;3542;48.812;9.146;2022-07-29T03:12:22;18.60;99.90
7004;DHT22;3542;48.812;9.146;2022-07-29T03:14:48;18.60;99.90
7004;DHT22;3542;48.812;9.146;2022-07-29T03:17:14;18.60;99.90
7004;DHT22;3542;48.812;9.146;2022-07-29T03:19:40;18.60;99.90
7004;DHT22;3542;48.812;9.146;2022-07-29T03:22:06;18.60;99.90
7004;DHT22;3542;48.812;9.146;2022-07-29T03:24:34;18.60;99.90
7004;DHT22;3542;48.812;9.146;2022-07-29T03:27:00;18.50;99.90
7004;DHT22;3542;48.812;9.146;2022-07-29T03:29:26;18.50;99.90
7004;DHT22;3542;48.812;9.146;2022-07-29T03:31:53;18.40;99.90
7004;DHT22;3542;48.812;9.146;2022-07-29T03:34:18;18.40;99.90
7004;DHT22;3542;48.812;9.146;2022-07-29T03:36:44;18.40;99.90
7004;DHT22;3542;48.812;9.146;2022-07-29T03:39:10;18.40;99.90
7004;DHT22;3542;48.812;9.146;2022-07-29T03:41:38;18.50;99.90
7004;DHT22;3542;48.812;9.146;2022-07-29T03:44:07;18.40;99.90
7004;DHT22;3542;48.812;9.146;2022-07-29T03:46:35;18.50;99.90
7004;DHT22;3542;48.812;9.146;2022-07-29T03:49:04;18.50;99.90
7004;DHT22;3542;48.812;9.146;2022-07-29T03:51:30;18.50;99.90
7004;DHT22;3542;48.812;9.146;2022-07-29T03:53:56;18.50;99.90
7004;DHT22;3542;48.812;9.146;2022-07-29T03:56:23;18.50;99.90
7004;DHT22;3542;48.812;9.146;2022-07-29T03:58:52;18.50;99.90
7004;DHT22;3542;48.812;9.146;2022-07-29T04:01:19;18.40;99.90
7004;DHT22;3542;48.812;9.146;2022-07-29T04:03:45;18.40;99.90
7004;DHT22;3542;48.812;9.146;2022-07-29T04:06:11;18.40;99.90
7004;DHT22;3542;48.812;9.146;2022-07-29T04:08:37;18.30;99.90
7004;DHT22;3542;48.812;9.146;2022-07-29T04:11:04;18.30;99.90
7004;DHT22;3542;48.812;9.146;2022-07-29T04:13:30;18.40;99.90
7004;DHT22;3542;48.812;9.146;2022-07-29T04:15:56;18.40;99.90
7004;DHT22;3542;48.812;9.146;2022-07-29T04:18:22;18.40;99.90
7004;DHT22;3542;48.812;9.146;2022-07-29T04:20:47;18.40;99.90
7004;DHT22;3542;48.812;9.146;2022-07-29T04:23:13;18.40;99.90
7004;DHT22;3542;48.812;9.146;2022-07-29T04:25:39;18.50;99.90
7004;DHT22;3542;48.812;9.146;2022-07-29T04:28:06;18.50;99.90
7004;DHT22;3542;48.812;9.146;2022-07-29T04:30:33;18.50;99.90
7004;DHT22;3542;48.812;9.146;2022-07-29T04:33:04;18.60;99.90
7004;DHT22;3542;48.812;9.146;2022-07-29T04:35:30;18.60;99.90
7004;DHT22;3542;48.812;9.146;2022-07-29T04:37:56;18.60;99.90
7004;DHT22;3542;48.812;9.146;2022-07-29T04:40:22;18.60;99.90
7004;DHT22;3542;48.812;9.146;2022-07-29T04:42:47;18.70;99.90
7004;DHT22;3542;48.812;9.146;2022-07-29T04:45:13;18.70;99.90
7004;DHT22;3542;48.812;9.146;2022-07-29T04:47:39;18.80;99.90
7004;DHT22;3542;48.812;9.146;2022-07-29T04:50:05;18.90;99.90
7004;DHT22;3542;48.812;9.146;2022-07-29T04:52:32;18.90;99.90
7004;DHT22;3542;48.812;9.146;2022-07-29T04:54:57;18.90;99.90
7004;DHT22;3542;48.812;9.146;2022-07-29T04:57:23;18.90;99.90
7004;DHT22;3542;48.812;9.146;2022-07-29T04:59:48;19.00;99.90
7004;DHT22;3542;48.812;9.146;2022-07-29T05:02:14;19.00;99.90
7004;DHT22;3542;48.812;9.146;2022-07-29T05:04:39;19.00;99.90
7004;DHT22;3542;48.812;9.146;2022-07-29T05:07:05;19.10;99.90
7004;DHT22;3542;48.812;9.146;2022-07-29T05:09:30;19.20;99.90
7004;DHT22;3542;48.812;9.146;2022-07-29T05:11:57;19.30;99.90
7004;DHT22;3542;48.812;9.146;2022-07-29T05:14:23;19.30;99.90
7004;DHT22;3542;48.812;9.146;2022-07-29T05:16:49;19.40;99.90
7004;DHT22;3542;48.812;9.146;2022-07-29T05:19:16;19.60;99.90
7004;DHT22;3542;48.812;9.146;2022-07-29T05:21:42;19.80;99.90
7004;DHT22;3542;48.812;9.146;2022-07-29T05:24:07;20.00;99.90
7004;DHT22;3542;48.812;9.146;2022-07-29T05:26:33;20.30;99.90
7004;DHT22;3542;48.812;9.146;2022-07-29T05:28:58;20.60;99.90
7004;DHT22;3542;48.812;9.146;2022-07-29T05:31:24;21.00;99.90
7004;DHT22;3542;48.812;9.146;2022-07-29T05:33:50;21.20;99.90
7004;DHT22;3542;48.812;9.146;2022-07-29T05:36:15;21.30;99.90
7004;DHT22;3542;48.812;9.146;2022-07-29T05:38:41;21.40;99.90
7004;DHT22;3542;48.812;9.146;2022-07-29T05:41:06;21.60;99.90
7004;DHT22;3542;48.812;9.146;2022-07-29T05:43:32;21.80;99.90
7004;DHT22;3542;48.812;9.146;2022-07-29T05:45:57;22.10;99.90
7004;DHT22;3542;48.812;9.146;2022-07-29T05:48:23;22.60;99.90
7004;DHT22;3542;48.812;9.146;2022-07-29T05:50:49;22.90;99.90
7004;DHT22;3542;48.812;9.146;2022-07-29T05:53:15;23.20;99.90
7004;DHT22;3542;48.812;9.146;2022-07-29T05:55:41;23.30;99.90
7004;DHT22;3542;48.812;9.146;2022-07-29T05:58:06;23.40;99.90
7004;DHT22;3542;48.812;9.146;2022-07-29T06:00:32;23.50;99.90
7004;DHT22;3542;48.812;9.146;2022-07-29T06:02:57;23.50;99.90
7004;DHT22;3542;48.812;9.146;2022-07-29T06:05:23;23.90;99.90
7004;DHT22;3542;48.812;9.146;2022-07-29T06:07:48;24.30;99.90
7004;DHT22;3542;48.812;9.146;2022-07-29T06:10:14;24.50;99.90
7004;DHT22;3542;48.812;9.146;2022-07-29T06:12:39;24.80;99.90
7004;DHT22;3542;48.812;9.146;2022-07-29T06:15:05;25.00;99.90
7004;DHT22;3542;48.812;9.146;2022-07-29T06:17:31;25.20;99.90
7004;DHT22;3542;48.812;9.146;2022-07-29T06:19:57;25.40;99.90
7004;DHT22;3542;48.812;9.146;2022-07-29T06:22:22;25.20;99.90
7004;DHT22;3542;48.812;9.146;2022-07-29T06:24:48;25.40;99.90
7004;DHT22;3542;48.812;9.146;2022-07-29T06:27:13;25.40;99.90
7004;DHT22;3542;48.812;9.146;2022-07-29T06:29:39;25.70;99.90
7004;DHT22;3542;48.812;9.146;2022-07-29T06:32:05;26.00;99.90
7004;DHT22;3542;48.812;9.146;2022-07-29T06:34:30;26.40;99.90
7004;DHT22;3542;48.812;9.146;2022-07-29T06:36:56;26.40;99.90
7004;DHT22;3542;48.812;9.146;2022-07-29T06:39:21;26.40;99.90
7004;DHT22;3542;48.812;9.146;2022-07-29T06:41:50;26.30;99.90
7004;DHT22;3542;48.812;9.146;2022-07-29T06:44:16;26.30;99.90
7004;DHT22;3542;48.812;9.146;2022-07-29T06:46:43;26.40;99.90
7004;DHT22;3542;48.812;9.146;2022-07-29T06:49:09;26.40;99.90
7004;DHT22;3542;48.812;9.146;2022-07-29T06:51:35;26.40;99.90
7004;DHT22;3542;48.812;9.146;2022-07-29T06:54:01;26.40;99.90
7004;DHT22;3542;48.812;9.146;2022-07-29T06:56:27;26.50;99.90
7004;DHT22;3542;48.812;9.146;2022-07-29T06:58:52;26.50;99.90
7004;DHT22;3542;48.812;9.146;2022-07-29T07:01:18;26.50;99.90
7004;DHT22;3542;48.812;9.146;2022-07-29T07:03:44;26.50;99.90
7004;DHT22;3542;48.812;9.146;2022-07-29T07:06:10;26.50;99.90
7004;DHT22;3542;48.812;9.146;2022-07-29T07:08:36;26.90;99.90
7004;DHT22;3542;48.812;9.146;2022-07-29T07:11:01;27.30;99.90
7004;DHT22;3542;48.812;9.146;2022-07-29T07:13:27;27.40;99.90
7004;DHT22;3542;48.812;9.146;2022-07-29T07:15:56;27.70;99.90
7004;DHT22;3542;48.812;9.146;2022-07-29T07:18:22;27.80;99.90
7004;DHT22;3542;48.812;9.146;2022-07-29T07:20:47;27.40;99.90
7004;DHT22;3542;48.812;9.146;2022-07-29T07:23:13;27.10;99.90
7004;DHT22;3542;48.812;9.146;2022-07-29T07:25:38;27.10;99.90
7004;DHT22;3542;48.812;9.146;2022-07-29T07:28:04;27.30;99.90
7004;DHT22;3542;48.812;9.146;2022-07-29T07:30:30;27.60;99.90
7004;DHT22;3542;48.812;9.146;2022-07-29T07:32:56;27.70;99.90
7004;DHT22;3542;48.812;9.146;2022-07-29T07:35:21;27.90;99.90
7004;DHT22;3542;48.812;9.146;2022-07-29T07:37:47;28.00;99.90
7004;DHT22;3542;48.812;9.146;2022-07-29T07:40:13;27.90;99.90
7004;DHT22;3542;48.812;9.146;2022-07-29T07:42:40;27.60;99.90
7004;DHT22;3542;48.812;9.146;2022-07-29T07:45:06;27.70;99.90
7004;DHT22;3542;48.812;9.146;2022-07-29T07:47:35;28.10;99.90
7004;DHT22;3542;48.812;9.146;2022-07-29T07:50:00;28.40;99.90
7004;DHT22;3542;48.812;9.146;2022-07-29T07:52:26;28.90;99.90
7004;DHT22;3542;48.812;9.146;2022-07-29T07:54:51;29.40;99.90
7004;DHT22;3542;48.812;9.146;2022-07-29T07:57:18;29.70;99.90
7004;DHT22;3542;48.812;9.146;2022-07-29T07:59:43;29.60;99.90
7004;DHT22;3542;48.812;9.146;2022-07-29T08:02:09;29.20;99.90
7004;DHT22;3542;48.812;9.146;2022-07-29T08:04:35;28.90;99.90
7004;DHT22;3542;48.812;9.146;2022-07-29T08:07:01;28.80;99.90
7004;DHT22;3542;48.812;9.146;2022-07-29T08:09:28;29.20;99.90
7004;DHT22;3542;48.812;9.146;2022-07-29T08:11:54;29.60;99.90
7004;DHT22;3542;48.812;9.146;2022-07-29T08:14:20;29.90;99.90
7004;DHT22;3542;48.812;9.146;2022-07-29T08:16:45;30.50;99.90
7004;DHT22;3542;48.812;9.146;2022-07-29T08:19:11;30.60;99.90
7004;DHT22;3542;48.812;9.146;2022-07-29T08:21:37;30.80;99.90
7004;DHT22;3542;48.812;9.146;2022-07-29T08:24:03;31.20;99.90
7004;DHT22;3542;48.812;9.146;2022-07-29T08:26:47;31.20;99.90
7004;DHT22;3542;48.812;9.146;2022-07-29T08:29:13;31.10;99.90
7004;DHT22;3542;48.812;9.146;2022-07-29T08:31:39;30.80;99.90
7004;DHT22;3542;48.812;9.146;2022-07-29T08:34:05;30.90;99.90
7004;DHT22;3542;48.812;9.146;2022-07-29T08:36:31;31.20;99.90
7004;DHT22;3542;48.812;9.146;2022-07-29T08:38:57;31.30;99.90
7004;DHT22;3542;48.812;9.146;2022-07-29T08:41:23;31.60;99.90
7004;DHT22;3542;48.812;9.146;2022-07-29T08:43:50;31.80;99.90
7004;DHT22;3542;48.812;9.146;2022-07-29T08:46:16;31.60;99.90
7004;DHT22;3542;48.812;9.146;2022-07-29T08:48:42;31.90;99.90
7004;DHT22;3542;48.812;9.146;2022-07-29T08:51:08;31.40;99.90
7004;DHT22;3542;48.812;9.146;2022-07-29T08:53:34;31.50;99.90
7004;DHT22;3542;48.812;9.146;2022-07-29T08:56:00;31.90;99.90
7004;DHT22;3542;48.812;9.146;2022-07-29T08:58:31;32.30;99.90
7004;DHT22;3542;48.812;9.146;2022-07-29T09:01:01;32.60;99.90
7004;DHT22;3542;48.812;9.146;2022-07-29T09:03:31;32.90;99.90
7004;DHT22;3542;48.812;9.146;2022-07-29T09:05:58;32.80;99.90
7004;DHT22;3542;48.812;9.146;2022-07-29T09:08:24;32.90;99.90
7004;DHT22;3542;48.812;9.146;2022-07-29T09:10:50;33.20;99.90
7004;DHT22;3542;48.812;9.146;2022-07-29T09:13:16;33.40;99.90
7004;DHT22;3542;48.812;9.146;2022-07-29T09:15:42;33.10;99.90
7004;DHT22;3542;48.812;9.146;2022-07-29T09:18:07;33.40;99.90
7004;DHT22;3542;48.812;9.146;2022-07-29T09:20:33;33.70;99.90
7004;DHT22;3542;48.812;9.146;2022-07-29T09:23:17;33.40;99.90
7004;DHT22;3542;48.812;9.146;2022-07-29T09:25:42;33.30;99.90
7004;DHT22;3542;48.812;9.146;2022-07-29T09:28:10;33.10;99.90
7004;DHT22;3542;48.812;9.146;2022-07-29T09:30:56;33.50;99.90
7004;DHT22;3542;48.812;9.146;2022-07-29T09:33:23;33.60;99.90
7004;DHT22;3542;48.812;9.146;2022-07-29T09:36:00;33.70;99.90
7004;DHT22;3542;48.812;9.146;2022-07-29T09:38:27;33.60;99.90
7004;DHT22;3542;48.812;9.146;2022-07-29T09:40:58;33.70;99.90
7004;DHT22;3542;48.812;9.146;2022-07-29T09:43:24;33.70;99.90
7004;DHT22;3542;48.812;9.146;2022-07-29T09:45:49;33.60;99.90
7004;DHT22;3542;48.812;9.146;2022-07-29T09:48:17;33.70;99.90
7004;DHT22;3542;48.812;9.146;2022-07-29T09:50:44;34.10;99.90
7004;DHT22;3542;48.812;9.146;2022-07-29T09:53:11;34.40;99.90
7004;DHT22;3542;48.812;9.146;2022-07-29T09:55:48;34.00;99.40
7004;DHT22;3542;48.812;9.146;2022-07-29T09:58:18;33.70;99.90
7004;DHT22;3542;48.812;9.146;2022-07-29T10:00:45;33.50;99.90
7004;DHT22;3542;48.812;9.146;2022-07-29T10:03:12;33.00;99.90
7004;DHT22;3542;48.812;9.146;2022-07-29T10:05:38;32.80;99.90
7004;DHT22;3542;48.812;9.146;2022-07-29T10:08:04;32.10;99.90
7004;DHT22;3542;48.812;9.146;2022-07-29T10:10:32;31.90;99.90
7004;DHT22;3542;48.812;9.146;2022-07-29T10:13:03;31.10;99.90
7004;DHT22;3542;48.812;9.146;2022-07-29T10:15:31;30.60;99.90
7004;DHT22;3542;48.812;9.146;2022-07-29T10:17:58;30.10;99.90
7004;DHT22;3542;48.812;9.146;2022-07-29T10:20:25;29.90;99.90
7004;DHT22;3542;48.812;9.146;2022-07-29T10:22:51;29.50;99.90
7004;DHT22;3542;48.812;9.146;2022-07-29T10:25:18;29.20;99.90
7004;DHT22;3542;48.812;9.146;2022-07-29T10:27:45;29.00;99.90
7004;DHT22;3542;48.812;9.146;2022-07-29T10:30:12;28.70;99.90
7004;DHT22;3542;48.812;9.146;2022-07-29T10:35:52;28.30;99.90
7004;DHT22;3542;48.812;9.146;2022-07-29T10:41:31;27.50;99.90
7004;DHT22;3542;48.812;9.146;2022-07-29T10:44:18;27.30;99.90
7004;DHT22;3542;48.812;9.146;2022-07-29T10:46:44;27.00;99.90
7004;DHT22;3542;48.812;9.146;2022-07-29T10:49:13;26.70;99.90
7004;DHT22;3542;48.812;9.146;2022-07-29T10:54:42;26.40;99.90
7004;DHT22;3542;48.812;9.146;2022-07-29T10:57:19;26.20;99.90
7004;DHT22;3542;48.812;9.146;2022-07-29T10:59:50;26.00;99.90
7004;DHT22;3542;48.812;9.146;2022-07-29T11:05:16;25.60;99.90
7004;DHT22;3542;48.812;9.146;2022-07-29T11:10:35;25.30;99.90
7004;DHT22;3542;48.812;9.146;2022-07-29T11:13:00;25.20;99.90
7004;DHT22;3542;48.812;9.146;2022-07-29T11:15:26;25.00;99.90
7004;DHT22;3542;48.812;9.146;2022-07-29T11:20:31;24.80;99.90
7004;DHT22;3542;48.812;9.146;2022-07-29T11:22:57;24.70;99.90
7004;DHT22;3542;48.812;9.146;2022-07-29T11:25:24;24.50;99.90
7004;DHT22;3542;48.812;9.146;2022-07-29T11:27:50;24.50;99.90
7004;DHT22;3542;48.812;9.146;2022-07-29T11:30:16;24.30;99.90
7004;DHT22;3542;48.812;9.146;2022-07-29T11:32:43;24.00;99.90
7004;DHT22;3542;48.812;9.146;2022-07-29T11:35:22;23.60;99.90
7004;DHT22;3542;48.812;9.146;2022-07-29T11:38:24;23.60;99.90
7004;DHT22;3542;48.812;9.146;2022-07-29T11:41:24;23.50;99.90
7004;DHT22;3542;48.812;9.146;2022-07-29T11:46:49;23.70;99.90
7004;DHT22;3542;48.812;9.146;2022-07-29T11:49:19;23.80;99.90
7004;DHT22;3542;48.812;9.146;2022-07-29T11:51:54;23.90;99.90
7004;DHT22;3542;48.812;9.146;2022-07-29T11:54:33;24.10;99.90
7004;DHT22;3542;48.812;9.146;2022-07-29T11:56:59;24.00;99.90
7004;DHT22;3542;48.812;9.146;2022-07-29T11:59:25;24.00;99.90
7004;DHT22;3542;48.812;9.146;2022-07-29T12:01:58;24.00;99.90
7004;DHT22;3542;48.812;9.146;2022-07-29T12:04:24;23.90;99.90
7004;DHT22;3542;48.812;9.146;2022-07-29T12:06:50;24.00;99.90
7004;DHT22;3542;48.812;9.146;2022-07-29T12:09:17;24.00;99.90
7004;DHT22;3542;48.812;9.146;2022-07-29T12:11:43;24.00;99.90
7004;DHT22;3542;48.812;9.146;2022-07-29T12:14:08;24.00;99.90
7004;DHT22;3542;48.812;9.146;2022-07-29T12:16:37;24.00;99.90
7004;DHT22;3542;48.812;9.146;2022-07-29T12:19:04;24.10;99.90
7004;DHT22;3542;48.812;9.146;2022-07-29T12:21:46;24.30;99.90
7004;DHT22;3542;48.812;9.146;2022-07-29T12:24:12;24.80;99.90
7004;DHT22;3542;48.812;9.146;2022-07-29T12:26:49;24.90;99.90
7004;DHT22;3542;48.812;9.146;2022-07-29T12:29:16;24.90;99.90
7004;DHT22;3542;48.812;9.146;2022-07-29T12:31:42;24.80;99.90
7004;DHT22;3542;48.812;9.146;2022-07-29T12:34:12;24.50;99.90
7004;DHT22;3542;48.812;9.146;2022-07-29T12:36:38;24.20;99.90
7004;DHT22;3542;48.812;9.146;2022-07-29T12:39:04;24.00;99.90
7004;DHT22;3542;48.812;9.146;2022-07-29T12:41:30;23.80;99.90
7004;DHT22;3542;48.812;9.146;2022-07-29T12:43:56;23.80;99.90
7004;DHT22;3542;48.812;9.146;2022-07-29T12:46:21;23.70;99.90
7004;DHT22;3542;48.812;9.146;2022-07-29T12:48:53;23.60;99.90
7004;DHT22;3542;48.812;9.146;2022-07-29T12:51:36;23.40;99.90
7004;DHT22;3542;48.812;9.146;2022-07-29T12:56:29;23.20;99.90
7004;DHT22;3542;48.812;9.146;2022-07-29T12:58:55;23.10;99.90
7004;DHT22;3542;48.812;9.146;2022-07-29T13:01:20;23.10;99.90
7004;DHT22;3542;48.812;9.146;2022-07-29T13:03:51;23.10;99.90
7004;DHT22;3542;48.812;9.146;2022-07-29T13:09:09;23.10;99.90
7004;DHT22;3542;48.812;9.146;2022-07-29T13:11:38;23.10;99.90
7004;DHT22;3542;48.812;9.146;2022-07-29T13:14:05;23.10;99.90
7004;DHT22;3542;48.812;9.146;2022-07-29T13:16:31;23.00;99.90
7004;DHT22;3542;48.812;9.146;2022-07-29T13:19:08;23.00;99.90
7004;DHT22;3542;48.812;9.146;2022-07-29T13:21:34;22.90;99.90
7004;DHT22;3542;48.812;9.146;2022-07-29T13:24:00;23.00;99.90
7004;DHT22;3542;48.812;9.146;2022-07-29T13:26:25;23.00;99.90
7004;DHT22;3542;48.812;9.146;2022-07-29T13:28:51;22.90;99.90
7004;DHT22;3542;48.812;9.146;2022-07-29T13:31:16;22.80;99.90
7004;DHT22;3542;48.812;9.146;2022-07-29T13:33:42;22.60;99.90
7004;DHT22;3542;48.812;9.146;2022-07-29T13:36:07;22.50;99.90
7004;DHT22;3542;48.812;9.146;2022-07-29T13:38:33;22.40;99.90
7004;DHT22;3542;48.812;9.146;2022-07-29T13:40:59;22.40;99.90
7004;DHT22;3542;48.812;9.146;2022-07-29T13:43:25;22.50;99.90
7004;DHT22;3542;48.812;9.146;2022-07-29T13:45:51;22.50;99.90
7004;DHT22;3542;48.812;9.146;2022-07-29T13:48:17;22.60;99.90
7004;DHT22;3542;48.812;9.146;2022-07-29T13:50:42;22.70;99.90
7004;DHT22;3542;48.812;9.146;2022-07-29T13:53:08;22.80;99.90
7004;DHT22;3542;48.812;9.146;2022-07-29T13:55:33;23.00;99.90
7004;DHT22;3542;48.812;9.146;2022-07-29T13:57:59;23.10;99.90
7004;DHT22;3542;48.812;9.146;2022-07-29T14:00:25;23.10;99.90
7004;DHT22;3542;48.812;9.146;2022-07-29T14:02:51;23.30;99.90
7004;DHT22;3542;48.812;9.146;2022-07-29T14:05:17;23.50;99.90
7004;DHT22;3542;48.812;9.146;2022-07-29T14:07:43;23.70;99.90
7004;DHT22;3542;48.812;9.146;2022-07-29T14:10:09;23.90;99.90
7004;DHT22;3542;48.812;9.146;2022-07-29T14:12:34;24.10;99.90
7004;DHT22;3542;48.812;9.146;2022-07-29T14:15:00;24.30;99.90
7004;DHT22;3542;48.812;9.146;2022-07-29T14:17:26;24.40;99.90
7004;DHT22;3542;48.812;9.146;2022-07-29T14:19:51;24.50;99.90
7004;DHT22;3542;48.812;9.146;2022-07-29T14:22:17;24.60;99.90
7004;DHT22;3542;48.812;9.146;2022-07-29T14:24:44;24.70;99.90
7004;DHT22;3542;48.812;9.146;2022-07-29T14:27:09;24.80;99.90
7004;DHT22;3542;48.812;9.146;2022-07-29T14:29:35;24.90;99.90
7004;DHT22;3542;48.812;9.146;2022-07-29T14:32:01;25.00;99.90
7004;DHT22;3542;48.812;9.146;2022-07-29T14:34:26;25.00;99.90
7004;DHT22;3542;48.812;9.146;2022-07-29T14:36:52;24.90;99.90
7004;DHT22;3542;48.812;9.146;2022-07-29T14:39:21;25.00;99.90
7004;DHT22;3542;48.812;9.146;2022-07-29T14:41:48;25.10;99.90
7004;DHT22;3542;48.812;9.146;2022-07-29T14:44:14;25.10;99.90
7004;DHT22;3542;48.812;9.146;2022-07-29T14:46:39;25.10;99.90
7004;DHT22;3542;48.812;9.146;2022-07-29T14:49:05;25.10;99.90
7004;DHT22;3542;48.812;9.146;2022-07-29T14:51:31;25.00;99.90
7004;DHT22;3542;48.812;9.146;2022-07-29T14:53:56;25.10;99.90
7004;DHT22;3542;48.812;9.146;2022-07-29T14:56:22;25.20;99.90
7004;DHT22;3542;48.812;9.146;2022-07-29T14:58:48;25.20;99.90
7004;DHT22;3542;48.812;9.146;2022-07-29T15:01:14;25.30;99.90
7004;DHT22;3542;48.812;9.146;2022-07-29T15:03:39;25.30;99.90
7004;DHT22;3542;48.812;9.146;2022-07-29T15:06:05;25.40;99.90
7004;DHT22;3542;48.812;9.146;2022-07-29T15:08:31;25.40;99.90
7004;DHT22;3542;48.812;9.146;2022-07-29T15:10:56;25.40;99.90
7004;DHT22;3542;48.812;9.146;2022-07-29T15:13:26;25.40;99.90
7004;DHT22;3542;48.812;9.146;2022-07-29T15:15:51;25.50;99.90
7004;DHT22;3542;48.812;9.146;2022-07-29T15:18:17;25.50;99.90
7004;DHT22;3542;48.812;9.146;2022-07-29T15:20:43;25.50;99.90
7004;DHT22;3542;48.812;9.146;2022-07-29T15:23:11;25.60;99.90
7004;DHT22;3542;48.812;9.146;2022-07-29T15:25:38;25.60;99.90
7004;DHT22;3542;48.812;9.146;2022-07-29T15:28:04;25.60;99.90
7004;DHT22;3542;48.812;9.146;2022-07-29T15:30:33;25.70;99.90
7004;DHT22;3542;48.812;9.146;2022-07-29T15:32:59;25.80;99.90
7004;DHT22;3542;48.812;9.146;2022-07-29T15:35:25;25.90;99.90
7004;DHT22;3542;48.812;9.146;2022-07-29T15:37:50;26.00;99.90
7004;DHT22;3542;48.812;9.146;2022-07-29T15:40:16;26.00;99.90
7004;DHT22;3542;48.812;9.146;2022-07-29T15:42:41;26.10;99.90
7004;DHT22;3542;48.812;9.146;2022-07-29T15:45:07;26.00;99.90
7004;DHT22;3542;48.812;9.146;2022-07-29T15:47:35;25.90;99.90
7004;DHT22;3542;48.812;9.146;2022-07-29T15:50:00;25.90;99.90
7004;DHT22;3542;48.812;9.146;2022-07-29T15:52:26;25.90;99.90
7004;DHT22;3542;48.812;9.146;2022-07-29T15:54:55;25.90;99.90
7004;DHT22;3542;48.812;9.146;2022-07-29T15:57:22;25.90;99.90
7004;DHT22;3542;48.812;9.146;2022-07-29T15:59:48;25.90;99.90
7004;DHT22;3542;48.812;9.146;2022-07-29T16:02:13;25.90;99.90
7004;DHT22;3542;48.812;9.146;2022-07-29T16:04:39;26.00;99.90
7004;DHT22;3542;48.812;9.146;2022-07-29T16:07:04;26.00;99.90
7004;DHT22;3542;48.812;9.146;2022-07-29T16:09:30;26.10;99.90
7004;DHT22;3542;48.812;9.146;2022-07-29T16:11:55;26.20;99.90
7004;DHT22;3542;48.812;9.146;2022-07-29T16:14:21;26.20;99.90
7004;DHT22;3542;48.812;9.146;2022-07-29T16:16:47;26.20;99.90
7004;DHT22;3542;48.812;9.146;2022-07-29T16:19:12;26.20;99.90
7004;DHT22;3542;48.812;9.146;2022-07-29T16:21:39;26.10;99.90
7004;DHT22;3542;48.812;9.146;2022-07-29T16:24:06;26.00;99.90
7004;DHT22;3542;48.812;9.146;2022-07-29T16:26:32;26.00;99.90
7004;DHT22;3542;48.812;9.146;2022-07-29T16:28:58;25.90;99.90
7004;DHT22;3542;48.812;9.146;2022-07-29T16:31:24;25.80;99.90
7004;DHT22;3542;48.812;9.146;2022-07-29T16:33:52;25.80;99.90
7004;DHT22;3542;48.812;9.146;2022-07-29T16:36:17;25.70;99.90
7004;DHT22;3542;48.812;9.146;2022-07-29T16:38:44;25.70;99.90
7004;DHT22;3542;48.812;9.146;2022-07-29T16:41:10;25.70;99.90
7004;DHT22;3542;48.812;9.146;2022-07-29T16:43:36;25.70;99.90
7004;DHT22;3542;48.812;9.146;2022-07-29T16:46:01;25.70;99.90
7004;DHT22;3542;48.812;9.146;2022-07-29T16:48:27;25.80;99.90
7004;DHT22;3542;48.812;9.146;2022-07-29T16:50:52;25.80;99.90
7004;DHT22;3542;48.812;9.146;2022-07-29T16:53:18;25.70;99.90
7004;DHT22;3542;48.812;9.146;2022-07-29T16:55:44;25.60;99.90
7004;DHT22;3542;48.812;9.146;2022-07-29T16:58:10;25.50;99.90
7004;DHT22;3542;48.812;9.146;2022-07-29T17:00:35;25.40;99.90
7004;DHT22;3542;48.812;9.146;2022-07-29T17:03:01;25.30;99.90
7004;DHT22;3542;48.812;9.146;2022-07-29T17:05:27;25.30;99.90
7004;DHT22;3542;48.812;9.146;2022-07-29T17:07:52;25.30;99.90
7004;DHT22;3542;48.812;9.146;2022-07-29T17:10:18;25.30;99.90
7004;DHT22;3542;48.812;9.146;2022-07-29T17:12:45;25.30;99.90
7004;DHT22;3542;48.812;9.146;2022-07-29T17:15:11;25.30;99.90
7004;DHT22;3542;48.812;9.146;2022-07-29T17:17:37;25.30;99.90
7004;DHT22;3542;48.812;9.146;2022-07-29T17:20:08;25.30;99.90
7004;DHT22;3542;48.812;9.146;2022-07-29T17:22:34;25.20;99.90
7004;DHT22;3542;48.812;9.146;2022-07-29T17:25:00;25.20;99.90
7004;DHT22;3542;48.812;9.146;2022-07-29T17:27:26;25.20;99.90
7004;DHT22;3542;48.812;9.146;2022-07-29T17:29:52;25.20;99.90
7004;DHT22;3542;48.812;9.146;2022-07-29T17:32:18;25.20;99.90
7004;DHT22;3542;48.812;9.146;2022-07-29T17:34:43;25.30;99.90
7004;DHT22;3542;48.812;9.146;2022-07-29T17:37:10;25.20;99.90
7004;DHT22;3542;48.812;9.146;2022-07-29T17:39:40;25.20;99.90
7004;DHT22;3542;48.812;9.146;2022-07-29T17:42:11;25.10;99.90
7004;DHT22;3542;48.812;9.146;2022-07-29T17:44:40;25.20;99.90
7004;DHT22;3542;48.812;9.146;2022-07-29T17:47:07;25.10;99.90
7004;DHT22;3542;48.812;9.146;2022-07-29T17:49:33;25.10;99.90
7004;DHT22;3542;48.812;9.146;2022-07-29T17:51:59;25.10;99.90
7004;DHT22;3542;48.812;9.146;2022-07-29T17:54:25;25.10;99.90
7004;DHT22;3542;48.812;9.146;2022-07-29T17:56:51;25.10;99.90
7004;DHT22;3542;48.812;9.146;2022-07-29T17:59:17;25.10;99.90